Time;durP1;ratioP1;P1;durP2;ratioP2;P2;SDS_P1;SDS_P2;PMS_P1;PMS_P2;Temp;Humidity;BMP_temperature;BMP_pressure;BME280_temperature;BME280_humidity;BME280_pressure;Samples;Min_cycle;Max_cycle;Signal;HPM_P1;HPM_P2
2023/09/17 00:00:13;;;;;;;5.67;4.70;;;;;;;19.09;76.96;94069.13;527532;28;2736;-42
2023/09/17 00:00:28;;;;;;;4.80;4.18;;;;;;;19.09;76.85;94066.31;527944;28;1012;-42
2023/09/17 00:00:44;;;;;;;4.50;3.97;;;;;;;19.09;76.85;94068.38;527609;28;1006;-42
2023/09/17 00:00:59;;;;;;;4.47;4.00;;;;;;;19.08;76.75;94070.44;526989;28;1702;-42
2023/09/17 00:01:15;;;;;;;6.37;4.33;;;;;;;18.97;76.76;94050.72;525347;28;824;-41
2023/09/17 00:01:30;;;;;;;7.30;4.78;;;;;;;19.06;76.66;94066.78;526103;28;831;-42
2023/09/17 00:01:46;;;;;;;5.80;4.60;;;;;;;19.06;76.81;94064.69;524150;28;817;-42
2023/09/17 00:02:02;;;;;;;5.65;4.43;;;;;;;19.05;76.67;94066.03;521959;28;806;-42
2023/09/17 00:02:19;;;;;;;6.00;4.60;;;;;;;19.06;76.76;94061.19;519945;28;847;-42
2023/09/17 00:02:36;;;;;;;6.65;4.68;;;;;;;19.06;76.70;94064.69;519974;28;1224;-41
2023/09/17 00:02:51;;;;;;;5.70;4.50;;;;;;;19.06;76.76;94064.69;520702;28;896;-42
2023/09/17 00:03:07;;;;;;;5.70;4.75;;;;;;;19.00;76.75;94058.66;520664;28;854;-42
2023/09/17 00:03:22;;;;;;;5.50;4.95;;;;;;;19.08;76.59;94070.44;521934;28;959;-42
2023/09/17 00:03:38;;;;;;;5.23;4.73;;;;;;;19.07;76.68;94068.22;521020;28;905;-42
2023/09/17 00:03:54;;;;;;;5.30;4.80;;;;;;;19.06;76.59;94069.56;520619;28;1244;-41
2023/09/17 00:04:09;;;;;;;5.33;4.57;;;;;;;19.02;76.66;94064.41;520695;28;884;-42
2023/09/17 00:04:25;;;;;;;5.18;4.20;;;;;;;19.06;76.84;94063.97;519795;28;927;-42
2023/09/17 00:04:40;;;;;;;5.07;4.17;;;;;;;19.05;76.73;94068.84;520179;28;894;-42
2023/09/17 00:04:55;;;;;;;4.97;4.20;;;;;;;19.06;76.75;94069.56;518344;28;789;-42
2023/09/17 00:05:11;;;;;;;4.63;4.13;;;;;;;19.06;76.93;94069.56;519976;28;1096;-42
2023/09/17 00:05:26;;;;;;;5.37;4.20;;;;;;;19.05;76.93;94070.91;518194;28;1068;-42
2023/09/17 00:05:42;;;;;;;6.53;4.35;;;;;;;19.05;77.00;94068.09;520364;28;794;-41
2023/09/17 00:05:57;;;;;;;5.50;4.07;;;;;;;19.04;76.94;94063.81;521928;28;984;-41
2023/09/17 00:06:13;;;;;;;4.80;4.15;;;;;;;19.04;76.93;94066.59;522281;28;893;-41
2023/09/17 00:06:28;;;;;;;5.17;4.27;;;;;;;19.04;76.84;94070.16;524141;28;1596;-41
2023/09/17 00:06:44;;;;;;;7.40;4.10;;;;;;;19.04;76.96;94064.56;524293;28;897;-41
2023/09/17 00:06:59;;;;;;;8.25;4.18;;;;;;;19.03;76.86;94063.09;528107;28;1061;-41
2023/09/17 00:07:14;;;;;;;6.60;4.60;;;;;;;19.03;76.86;94060.28;526055;28;884;-41
2023/09/17 00:07:30;;;;;;;5.33;4.63;;;;;;;19.02;77.03;94067.19;526810;28;918;-42
2023/09/17 00:07:45;;;;;;;4.82;4.20;;;;;;;19.02;77.06;94061.59;526235;28;863;-42
2023/09/17 00:08:00;;;;;;;5.00;4.47;;;;;;;19.02;76.94;94067.19;524044;28;818;-41
2023/09/17 00:08:16;;;;;;;5.03;4.23;;;;;;;19.02;77.04;94064.41;524043;28;868;-41
2023/09/17 00:08:31;;;;;;;5.97;4.18;;;;;;;18.98;77.09;94064.13;525238;28;1074;-42
2023/09/17 00:08:46;;;;;;;7.80;4.80;;;;;;;19.02;76.97;94066.47;526170;28;845;-41
2023/09/17 00:09:03;;;;;;;6.07;4.60;;;;;;;19.02;77.12;94063.66;526103;28;1170;-41
2023/09/17 00:09:18;;;;;;;4.60;4.20;;;;;;;19.02;77.02;94063.66;525997;28;1659;-41
2023/09/17 00:09:34;;;;;;;4.83;3.93;;;;;;;19.01;76.89;94071.34;526364;28;849;-41
2023/09/17 00:09:49;;;;;;;4.88;4.15;;;;;;;19.01;76.89;94068.53;526807;28;1091;-41
2023/09/17 00:10:05;;;;;;;5.30;4.40;;;;;;;19.02;76.93;94060.88;527948;28;1672;-42
2023/09/17 00:10:22;;;;;;;5.05;4.35;;;;;;;18.92;76.85;94052.50;528247;28;876;-41
2023/09/17 00:10:39;;;;;;;4.60;4.15;;;;;;;19.01;76.90;94062.22;527896;28;1108;-41
2023/09/17 00:10:54;;;;;;;4.68;4.18;;;;;;;19.01;76.95;94065.00;528427;28;947;-41
2023/09/17 00:11:10;;;;;;;4.78;4.28;;;;;;;18.99;76.75;94060.00;528237;28;828;-41
2023/09/17 00:11:25;;;;;;;4.87;4.27;;;;;;;19.00;76.86;94061.47;525997;28;1187;-42
2023/09/17 00:11:40;;;;;;;5.18;4.57;;;;;;;19.01;76.92;94065.00;521902;28;825;-41
2023/09/17 00:11:56;;;;;;;5.40;4.60;;;;;;;19.00;76.87;94064.25;519956;28;779;-41
2023/09/17 00:12:11;;;;;;;6.30;4.47;;;;;;;19.00;76.94;94061.47;519860;28;791;-41
2023/09/17 00:12:27;;;;;;;5.47;4.10;;;;;;;18.98;76.90;94061.31;520232;28;849;-41
2023/09/17 00:12:42;;;;;;;4.47;3.77;;;;;;;19.02;76.82;94063.66;522055;28;1085;-41
2023/09/17 00:12:57;;;;;;;6.13;4.23;;;;;;;19.01;76.81;94062.94;522195;28;1225;-41
2023/09/17 00:13:13;;;;;;;6.28;4.70;;;;;;;19.01;76.83;94065.00;522209;28;840;-41
2023/09/17 00:13:29;;;;;;;5.53;4.50;;;;;;;19.01;76.69;94065.75;522218;28;908;-41
2023/09/17 00:13:44;;;;;;;4.63;3.95;;;;;;;19.00;76.67;94067.06;521859;28;1700;-41
2023/09/17 00:13:59;;;;;;;4.10;3.70;;;;;;;19.01;76.77;94073.41;523776;28;821;-41
2023/09/17 00:14:15;;;;;;;4.60;3.97;;;;;;;18.99;76.81;94062.81;521871;28;944;-42
2023/09/17 00:14:30;;;;;;;5.97;4.23;;;;;;;19.01;76.69;94068.53;519783;28;1170;-42
2023/09/17 00:14:46;;;;;;;5.63;4.20;;;;;;;19.00;76.61;94067.06;519822;28;928;-41
2023/09/17 00:15:03;;;;;;;5.93;4.27;;;;;;;19.00;76.78;94067.06;515764;28;798;-42
2023/09/17 00:15:18;;;;;;;5.57;4.13;;;;;;;19.00;76.56;94069.13;517686;28;1082;-42
2023/09/17 00:15:34;;;;;;;5.32;4.13;;;;;;;19.01;76.52;94068.53;518120;28;806;-42
2023/09/17 00:15:49;;;;;;;5.90;4.00;;;;;;;18.85;76.41;94048.50;518435;28;837;-42
2023/09/17 00:16:05;;;;;;;5.17;3.80;;;;;;;18.97;76.37;94061.91;520233;28;1118;-42
2023/09/17 00:16:20;;;;;;;4.72;3.83;;;;;;;19.00;76.45;94066.31;520485;28;821;-42
2023/09/17 00:16:38;;;;;;;4.00;3.60;;;;;;;19.01;76.37;94071.34;522289;28;790;-42
2023/09/17 00:16:53;;;;;;;3.78;3.47;;;;;;;19.01;76.44;94065.00;520213;28;1721;-42
2023/09/17 00:17:09;;;;;;;4.00;3.60;;;;;;;19.00;76.45;94067.06;520628;28;916;-42
2023/09/17 00:17:24;;;;;;;4.97;4.07;;;;;;;19.00;76.42;94063.53;521609;28;1082;-42
2023/09/17 00:17:39;;;;;;;5.03;4.13;;;;;;;18.99;76.46;94065.59;523974;28;860;-42
2023/09/17 00:17:55;;;;;;;4.70;4.13;;;;;;;18.99;76.37;94065.59;523947;28;1054;-41
2023/09/17 00:18:10;;;;;;;4.97;4.30;;;;;;;18.99;76.59;94064.88;524606;28;872;-41
2023/09/17 00:18:26;;;;;;;5.77;4.30;;;;;;;18.98;76.51;94061.31;523879;28;1363;-42
2023/09/17 00:18:41;;;;;;;5.27;4.43;;;;;;;18.98;76.56;94063.38;524322;28;869;-41
2023/09/17 00:18:57;;;;;;;5.50;4.18;;;;;;;18.86;76.57;94046.47;526006;28;1149;-42
2023/09/17 00:19:13;;;;;;;5.53;3.88;;;;;;;18.96;76.53;94060.44;524310;28;853;-41
2023/09/17 00:19:29;;;;;;;5.28;3.95;;;;;;;18.97;76.60;94068.25;523472;28;1001;-42
2023/09/17 00:19:44;;;;;;;5.03;4.03;;;;;;;18.97;76.59;94065.47;523969;28;828;-42
2023/09/17 00:19:59;;;;;;;4.43;4.03;;;;;;;18.96;76.51;94061.16;523830;28;1981;-42
2023/09/17 00:20:15;;;;;;;5.43;4.03;;;;;;;18.96;76.49;94057.63;524414;28;1563;-42
2023/09/17 00:20:30;;;;;;;6.70;4.00;;;;;;;18.96;76.47;94060.44;525952;28;1125;-42
2023/09/17 00:20:46;;;;;;;5.57;3.97;;;;;;;18.97;76.47;94064.72;526114;28;822;-42
2023/09/17 00:21:03;;;;;;;4.87;4.00;;;;;;;18.95;76.45;94068.09;526384;28;1055;-42
2023/09/17 00:21:19;;;;;;;4.30;3.90;;;;;;;18.95;76.39;94064.56;528265;28;829;-42
2023/09/17 00:21:35;;;;;;;4.05;3.65;;;;;;;18.95;76.50;94061.78;527284;28;951;-42
2023/09/17 00:21:51;;;;;;;4.43;3.77;;;;;;;18.95;76.35;94061.78;526232;28;864;-42
2023/09/17 00:22:11;;;;;;;4.82;4.15;;;;;;;18.95;76.43;94061.78;528107;28;1152;-42
2023/09/17 00:22:26;;;;;;;7.22;4.35;;;;;;;18.95;76.44;94059.69;528384;28;865;-42
2023/09/17 00:22:42;;;;;;;7.97;4.45;;;;;;;18.94;76.52;94058.22;528274;28;924;-42
2023/09/17 00:22:59;;;;;;;6.47;4.03;;;;;;;18.95;76.57;94056.88;528429;28;816;-42
2023/09/17 00:23:14;;;;;;;4.90;3.58;;;;;;;18.95;76.59;94056.88;528281;28;887;-42
2023/09/17 00:23:30;;;;;;;5.35;3.70;;;;;;;18.94;76.67;94049.84;528196;28;1070;-42
2023/09/17 00:23:45;;;;;;;5.77;3.73;;;;;;;18.93;76.59;94045.56;528180;28;1761;-42
2023/09/17 00:24:01;;;;;;;3.87;3.43;;;;;;;18.95;76.72;94054.09;526921;28;821;-42
2023/09/17 00:24:16;;;;;;;4.72;3.47;;;;;;;18.95;76.69;94056.19;528198;28;812;-42
2023/09/17 00:24:33;;;;;;;5.72;3.90;;;;;;;18.94;76.87;94049.84;527027;28;829;-42
2023/09/17 00:24:48;;;;;;;4.68;4.18;;;;;;;18.95;76.67;94054.09;528332;28;874;-42
2023/09/17 00:25:04;;;;;;;5.00;4.03;;;;;;;18.95;76.93;94056.88;528293;28;1163;-42
2023/09/17 00:25:19;;;;;;;5.10;4.10;;;;;;;18.95;76.82;94051.28;528261;28;1010;-42
2023/09/17 00:25:35;;;;;;;4.50;4.10;;;;;;;18.95;76.85;94053.38;525361;28;1396;-42
2023/09/17 00:25:50;;;;;;;4.45;4.05;;;;;;;18.96;76.83;94052.03;525688;28;1604;-42
2023/09/17 00:26:06;;;;;;;4.67;4.03;;;;;;;18.95;76.75;94048.50;525886;28;921;-42
2023/09/17 00:26:22;;;;;;;5.35;4.30;;;;;;;18.95;76.76;94048.50;525719;28;1136;-42
2023/09/17 00:26:37;;;;;;;5.60;4.13;;;;;;;18.92;76.68;94050.44;525626;28;1333;-42
2023/09/17 00:26:53;;;;;;;5.55;4.07;;;;;;;18.95;76.67;94045.69;526128;28;832;-42
2023/09/17 00:27:08;;;;;;;5.03;4.30;;;;;;;18.95;76.46;94050.56;526337;28;1319;-42
2023/09/17 00:27:23;;;;;;;5.07;4.18;;;;;;;18.91;76.47;94043.34;527123;28;1821;-42
2023/09/17 00:27:39;;;;;;;5.43;4.03;;;;;;;18.95;76.37;94048.50;526998;28;1546;-42
2023/09/17 00:27:54;;;;;;;4.70;3.80;;;;;;;18.95;76.53;94048.50;526006;28;1909;-42
2023/09/17 00:28:10;;;;;;;4.15;3.75;;;;;;;18.95;76.34;94054.09;526194;28;943;-42
2023/09/17 00:28:25;;;;;;;4.20;3.80;;;;;;;18.95;76.46;94045.69;526226;28;1648;-42
2023/09/17 00:28:40;;;;;;;4.23;3.83;;;;;;;18.95;76.45;94045.69;527931;28;973;-42
2023/09/17 00:28:56;;;;;;;4.63;4.20;;;;;;;18.95;76.36;94047.78;528223;28;985;-42
2023/09/17 00:29:11;;;;;;;5.00;4.27;;;;;;;18.95;76.19;94050.56;528324;28;852;-42
2023/09/17 00:29:26;;;;;;;5.93;4.03;;;;;;;18.93;76.16;94046.28;527677;28;903;-42
2023/09/17 00:29:42;;;;;;;5.50;4.03;;;;;;;18.95;76.18;94042.91;528346;28;876;-42
2023/09/17 00:29:57;;;;;;;4.53;4.00;;;;;;;18.95;76.08;94044.97;528359;28;867;-42
2023/09/17 00:30:13;;;;;;;4.67;4.00;;;;;;;18.95;76.12;94042.19;528294;28;951;-42
2023/09/17 00:30:29;;;;;;;4.25;3.80;;;;;;;18.78;76.19;94029.06;528172;28;1079;-43
2023/09/17 00:30:44;;;;;;;4.20;3.63;;;;;;;18.95;76.11;94047.78;528382;28;891;-42
2023/09/17 00:31:00;;;;;;;4.10;3.70;;;;;;;18.95;75.97;94045.69;527563;28;1559;-42
2023/09/17 00:31:15;;;;;;;4.00;3.70;;;;;;;18.95;76.10;94045.69;528096;28;821;-43
2023/09/17 00:31:30;;;;;;;4.80;4.27;;;;;;;18.96;76.11;94044.38;527827;28;931;-43
2023/09/17 00:31:46;;;;;;;6.07;4.27;;;;;;;18.96;75.92;94049.25;527180;28;1077;-42
2023/09/17 00:32:01;;;;;;;4.85;3.72;;;;;;;18.96;75.94;94040.84;528280;28;1654;-42
2023/09/17 00:32:16;;;;;;;5.03;3.53;;;;;;;18.96;75.87;94043.63;528360;28;828;-42
2023/09/17 00:32:32;;;;;;;6.90;3.80;;;;;;;18.95;75.86;94042.19;527957;28;873;-42
2023/09/17 00:32:47;;;;;;;6.03;4.05;;;;;;;18.96;75.89;94047.19;528406;28;793;-43
2023/09/17 00:33:03;;;;;;;4.33;3.80;;;;;;;18.95;75.79;94048.50;528301;28;869;-42
2023/09/17 00:33:19;;;;;;;4.47;4.05;;;;;;;18.95;75.90;94042.91;528163;28;1139;-42
2023/09/17 00:33:34;;;;;;;5.20;4.43;;;;;;;18.95;76.10;94047.78;528190;28;902;-42
2023/09/17 00:33:49;;;;;;;4.60;4.00;;;;;;;18.93;76.04;94037.91;528401;28;797;-42
2023/09/17 00:34:05;;;;;;;4.00;3.60;;;;;;;18.94;75.95;94041.44;528350;28;852;-42
2023/09/17 00:34:20;;;;;;;3.93;3.27;;;;;;;18.95;76.15;94045.69;528265;28;1066;-42
2023/09/17 00:34:35;;;;;;;4.75;3.90;;;;;;;18.93;76.11;94040.69;527908;28;884;-43
2023/09/17 00:34:51;;;;;;;5.13;4.20;;;;;;;18.95;76.14;94042.19;528260;28;1229;-43
2023/09/17 00:35:07;;;;;;;5.40;3.80;;;;;;;18.95;76.15;94045.69;528234;28;947;-43
2023/09/17 00:35:22;;;;;;;4.60;4.00;;;;;;;18.93;76.21;94042.75;527963;28;1683;-43
2023/09/17 00:35:37;;;;;;;4.65;3.85;;;;;;;18.95;76.23;94047.78;527880;28;824;-43
2023/09/17 00:35:53;;;;;;;4.00;3.60;;;;;;;18.93;76.12;94039.97;526281;28;839;-43
2023/09/17 00:36:08;;;;;;;3.93;3.63;;;;;;;18.94;76.23;94047.03;526224;28;942;-43
2023/09/17 00:36:23;;;;;;;4.20;3.83;;;;;;;18.91;76.14;94043.34;527477;28;1176;-42
2023/09/17 00:36:39;;;;;;;4.22;3.83;;;;;;;18.90;76.00;94038.34;528270;28;876;-42
2023/09/17 00:36:54;;;;;;;4.23;3.83;;;;;;;18.94;75.90;94038.66;528270;28;1059;-42
2023/09/17 00:37:10;;;;;;;4.90;3.90;;;;;;;18.94;75.95;94041.44;528276;28;880;-42
2023/09/17 00:37:25;;;;;;;4.72;3.58;;;;;;;18.83;75.79;94025.97;528306;28;836;-42
2023/09/17 00:37:42;;;;;;;3.85;3.42;;;;;;;18.85;75.91;94031.72;528295;28;884;-42
2023/09/17 00:37:57;;;;;;;4.05;3.65;;;;;;;18.95;75.86;94042.19;528230;28;1053;-42
2023/09/17 00:38:12;;;;;;;5.23;3.83;;;;;;;18.93;75.92;94045.56;528286;28;986;-43
2023/09/17 00:38:28;;;;;;;5.63;4.00;;;;;;;18.93;75.92;94043.50;527642;28;1210;-43
2023/09/17 00:38:43;;;;;;;4.85;3.90;;;;;;;18.93;75.98;94043.50;528208;28;852;-42
2023/09/17 00:38:58;;;;;;;4.40;3.80;;;;;;;18.93;76.06;94037.91;528111;28;977;-42
2023/09/17 00:39:14;;;;;;;4.23;3.70;;;;;;;18.93;75.88;94037.91;527133;28;817;-42
2023/09/17 00:39:29;;;;;;;4.15;3.63;;;;;;;18.93;75.81;94039.97;527976;28;1236;-42
2023/09/17 00:39:45;;;;;;;6.40;4.03;;;;;;;18.93;75.89;94037.16;528150;28;826;-42
2023/09/17 00:40:00;;;;;;;6.38;4.00;;;;;;;18.92;75.75;94039.25;528031;28;1985;-43
2023/09/17 00:40:16;;;;;;;4.13;3.73;;;;;;;18.93;75.69;94039.97;527381;28;908;-42
2023/09/17 00:40:37;;;;;;;4.03;3.63;;;;;;;18.92;75.74;94038.50;526941;28;935;-42
2023/09/17 00:40:52;;;;;;;4.45;3.78;;;;;;;18.92;75.92;94035.69;528256;28;1196;-43
2023/09/17 00:41:07;;;;;;;4.30;3.80;;;;;;;18.87;75.81;94025.53;528300;28;828;-42
2023/09/17 00:41:23;;;;;;;4.37;3.97;;;;;;;18.90;75.99;94041.91;527103;28;840;-43
2023/09/17 00:41:38;;;;;;;4.60;3.95;;;;;;;18.91;75.93;94032.16;527970;28;828;-43
2023/09/17 00:41:54;;;;;;;4.43;3.97;;;;;;;18.90;76.05;94035.56;528285;28;939;-43
2023/09/17 00:42:09;;;;;;;4.07;3.67;;;;;;;18.90;76.16;94032.75;528252;28;1039;-43
2023/09/17 00:42:24;;;;;;;4.22;3.83;;;;;;;18.90;76.07;94024.38;528155;28;1077;-43
2023/09/17 00:42:41;;;;;;;4.60;4.20;;;;;;;18.87;76.11;94025.53;528282;28;805;-43
2023/09/17 00:42:56;;;;;;;4.13;3.72;;;;;;;18.89;76.19;94029.22;528336;28;1633;-43
2023/09/17 00:43:11;;;;;;;6.47;3.70;;;;;;;18.89;76.10;94031.28;527827;28;1391;-42
2023/09/17 00:43:27;;;;;;;6.80;3.88;;;;;;;18.89;76.12;94028.47;526780;28;1647;-43
2023/09/17 00:43:42;;;;;;;4.93;3.77;;;;;;;18.89;76.14;94028.47;526265;28;817;-42
2023/09/17 00:43:58;;;;;;;7.28;3.80;;;;;;;18.84;76.40;94021.13;527929;28;1397;-42
2023/09/17 00:44:13;;;;;;;6.37;3.93;;;;;;;18.89;76.27;94020.81;528248;28;857;-43
2023/09/17 00:44:28;;;;;;;4.43;4.03;;;;;;;18.89;76.26;94022.88;527817;28;970;-43
2023/09/17 00:44:44;;;;;;;4.10;3.72;;;;;;;18.90;76.22;94021.56;526275;28;879;-42
2023/09/17 00:45:00;;;;;;;3.67;3.38;;;;;;;18.89;76.22;94020.09;527806;28;1033;-43
2023/09/17 00:45:15;;;;;;;4.33;3.43;;;;;;;18.88;76.42;94024.94;528232;27;892;-42
2023/09/17 00:45:31;;;;;;;4.60;3.63;;;;;;;18.88;76.35;94030.53;527813;28;844;-42
2023/09/17 00:45:47;;;;;;;3.97;3.53;;;;;;;18.88;76.18;94027.72;526142;28;1078;-42
2023/09/17 00:46:02;;;;;;;4.17;3.43;;;;;;;18.88;76.33;94015.81;526246;28;781;-42
2023/09/17 00:46:19;;;;;;;3.70;3.40;;;;;;;18.87;76.36;94019.94;526179;28;1649;-42
2023/09/17 00:46:35;;;;;;;4.57;3.58;;;;;;;18.87;76.31;94025.53;527822;28;1123;-42
2023/09/17 00:46:50;;;;;;;6.55;3.80;;;;;;;18.87;76.38;94031.13;528238;28;888;-42
2023/09/17 00:47:07;;;;;;;7.30;3.67;;;;;;;18.86;76.18;94027.59;526074;28;1115;-42
2023/09/17 00:47:23;;;;;;;6.00;3.75;;;;;;;18.86;76.29;94027.59;523866;28;932;-42
2023/09/17 00:47:38;;;;;;;3.95;3.63;;;;;;;18.86;76.20;94024.78;527014;28;948;-42
2023/09/17 00:47:55;;;;;;;4.37;3.80;;;;;;;18.87;76.30;94025.53;523938;28;1152;-42
2023/09/17 00:48:11;;;;;;;4.40;3.83;;;;;;;18.85;76.37;94023.34;521842;28;925;-42
2023/09/17 00:48:27;;;;;;;5.45;3.65;;;;;;;18.85;76.28;94023.34;519735;28;948;-42
2023/09/17 00:48:42;;;;;;;5.85;3.75;;;;;;;18.86;76.31;94021.28;520584;28;893;-42
2023/09/17 00:48:58;;;;;;;4.30;3.70;;;;;;;18.85;76.46;94026.13;521253;28;1549;-43
2023/09/17 00:49:14;;;;;;;6.25;4.18;;;;;;;18.86;76.68;94029.66;518677;28;901;-42
2023/09/17 00:49:29;;;;;;;7.03;4.30;;;;;;;18.85;76.60;94025.38;521281;28;1079;-42
2023/09/17 00:49:45;;;;;;;4.75;3.80;;;;;;;18.86;76.91;94029.66;520870;28;1077;-42
2023/09/17 00:50:02;;;;;;;3.97;3.53;;;;;;;18.85;76.94;94026.13;518411;28;1091;-42
2023/09/17 00:50:17;;;;;;;4.70;3.63;;;;;;;18.87;76.90;94025.53;518832;28;1859;-42
2023/09/17 00:50:33;;;;;;;5.43;3.88;;;;;;;18.87;76.61;94031.13;517710;28;900;-43
2023/09/17 00:50:48;;;;;;;4.83;3.93;;;;;;;18.85;76.62;94026.13;519759;28;1094;-43
2023/09/17 00:51:03;;;;;;;4.80;3.77;;;;;;;18.86;76.54;94026.88;519244;28;817;-42
2023/09/17 00:51:19;;;;;;;4.65;3.70;;;;;;;18.86;76.63;94024.06;517759;28;1117;-43
2023/09/17 00:51:34;;;;;;;4.72;3.60;;;;;;;18.85;76.58;94023.34;518707;28;846;-42
2023/09/17 00:51:50;;;;;;;4.43;3.50;;;;;;;18.83;76.57;94019.66;522418;28;1615;-43
2023/09/17 00:52:15;;;;;;;4.93;3.87;;;;;;;18.85;76.42;94023.34;520862;28;935;-43
2023/09/17 00:52:33;;;;;;;4.57;3.72;;;;;;;18.85;76.39;94025.38;523558;28;1315;-42
2023/09/17 00:52:49;;;;;;;5.65;4.03;;;;;;;18.85;76.47;94023.34;525987;28;971;-42
2023/09/17 00:53:05;;;;;;;5.50;3.93;;;;;;;18.85;76.14;94020.53;521703;28;1437;-42
2023/09/17 00:53:20;;;;;;;4.70;3.80;;;;;;;18.86;76.16;94019.19;521836;28;912;-42
2023/09/17 00:53:36;;;;;;;4.87;3.73;;;;;;;18.87;76.07;94031.13;523802;28;881;-42
2023/09/17 00:53:53;;;;;;;5.03;4.03;;;;;;;18.86;76.08;94026.88;523967;28;849;-42
2023/09/17 00:54:10;;;;;;;5.03;4.30;;;;;;;18.86;76.00;94029.66;523919;28;900;-42
2023/09/17 00:54:27;;;;;;;6.32;4.20;;;;;;;18.85;75.96;94017.00;523860;28;1600;-42
2023/09/17 00:54:45;;;;;;;5.32;3.72;;;;;;;18.83;75.85;94022.44;519873;28;858;-42
2023/09/17 00:55:01;;;;;;;4.32;3.47;;;;;;;18.84;75.86;94026.72;521188;28;1015;-42
2023/09/17 00:55:16;;;;;;;4.22;3.80;;;;;;;18.83;76.05;94023.19;523754;28;1215;-43
2023/09/17 00:55:33;;;;;;;4.60;4.07;;;;;;;18.83;75.96;94023.19;521417;28;865;-42
2023/09/17 00:55:48;;;;;;;4.50;3.95;;;;;;;18.82;76.12;94021.69;521228;28;901;-42
2023/09/17 00:56:04;;;;;;;4.22;3.83;;;;;;;18.83;75.93;94025.97;523071;28;1650;-43
2023/09/17 00:56:19;;;;;;;4.20;3.80;;;;;;;18.82;75.75;94021.69;524055;28;2451;-42
2023/09/17 00:56:36;;;;;;;4.35;3.90;;;;;;;18.82;75.85;94023.75;524669;28;1148;-42
2023/09/17 00:56:51;;;;;;;4.00;3.60;;;;;;;18.81;75.88;94030.69;525808;28;881;-42
2023/09/17 00:57:07;;;;;;;3.93;3.60;;;;;;;18.80;75.71;94027.16;525735;28;916;-42
2023/09/17 00:57:22;;;;;;;4.57;3.80;;;;;;;18.80;75.81;94023.63;525963;28;988;-42
2023/09/17 00:57:39;;;;;;;5.53;3.50;;;;;;;18.80;75.71;94027.16;526215;28;781;-43
2023/09/17 00:57:55;;;;;;;4.32;3.40;;;;;;;18.80;75.94;94026.41;525945;28;1060;-42
2023/09/17 00:58:12;;;;;;;3.90;3.50;;;;;;;18.80;75.99;94024.34;525841;28;1121;-43
2023/09/17 00:58:33;;;;;;;3.88;3.53;;;;;;;18.80;76.01;94032.00;524419;28;958;-42
2023/09/17 00:58:49;;;;;;;5.82;3.78;;;;;;;18.77;75.96;94025.56;521833;28;936;-42
2023/09/17 00:59:05;;;;;;;6.15;3.83;;;;;;;18.76;76.04;94020.53;519849;28;896;-42
2023/09/17 00:59:20;;;;;;;3.90;3.60;;;;;;;18.75;75.80;94025.38;519852;28;1203;-43
2023/09/17 00:59:37;;;;;;;4.43;4.03;;;;;;;18.75;75.96;94030.97;522799;28;1065;-42
2023/09/17 00:59:53;;;;;;;4.40;3.88;;;;;;;18.75;76.04;94019.78;523899;28;1913;-42
2023/09/17 01:00:09;;;;;;;3.93;3.50;;;;;;;18.75;76.05;94021.88;523872;28;1021;-42
2023/09/17 01:00:25;;;;;;;4.47;3.67;;;;;;;18.75;76.12;94021.88;524589;28;990;-42
2023/09/17 01:00:42;;;;;;;3.97;3.50;;;;;;;18.75;76.11;94024.66;525597;28;824;-42
2023/09/17 01:01:00;;;;;;;3.65;3.35;;;;;;;18.63;75.87;94007.72;526324;28;1797;-42
2023/09/17 01:01:16;;;;;;;3.97;3.50;;;;;;;18.74;75.97;94028.78;526912;28;1128;-42
2023/09/17 01:01:32;;;;;;;4.93;3.58;;;;;;;18.73;76.07;94014.03;527085;28;875;-43
2023/09/17 01:01:47;;;;;;;4.30;3.83;;;;;;;18.72;76.08;94023.78;528201;28;1120;-43
2023/09/17 01:02:03;;;;;;;4.10;3.72;;;;;;;18.72;76.18;94023.03;528122;28;1537;-43
2023/09/17 01:02:21;;;;;;;4.57;3.75;;;;;;;18.72;76.16;94028.63;528049;28;920;-43
2023/09/17 01:02:36;;;;;;;4.57;3.70;;;;;;;18.71;76.33;94016.69;525857;28;1108;-43
2023/09/17 01:02:53;;;;;;;3.72;3.40;;;;;;;18.71;76.32;94019.50;525990;28;887;-43
2023/09/17 01:03:08;;;;;;;3.67;3.35;;;;;;;18.70;76.36;94017.28;525984;28;856;-43
2023/09/17 01:03:30;;;;;;;3.70;3.30;;;;;;;18.70;76.20;94026.44;523893;28;900;-43
2023/09/17 01:03:46;;;;;;;3.90;3.50;;;;;;;18.69;76.25;94022.16;521806;28;825;-42
2023/09/17 01:04:01;;;;;;;4.55;3.38;;;;;;;18.70;76.19;94022.88;521647;28;1778;-42
2023/09/17 01:04:17;;;;;;;4.90;3.47;;;;;;;18.69;76.16;94019.34;521603;28;1277;-42
2023/09/17 01:04:33;;;;;;;5.45;3.85;;;;;;;18.70;76.19;94014.50;522260;28;1392;-42
2023/09/17 01:04:50;;;;;;;4.53;3.90;;;;;;;18.70;76.26;94022.88;523605;28;1679;-43
2023/09/17 01:05:06;;;;;;;4.65;3.80;;;;;;;18.70;76.30;94022.88;523859;28;892;-43
2023/09/17 01:05:22;;;;;;;4.80;3.63;;;;;;;18.70;76.09;94014.50;525607;28;824;-42
2023/09/17 01:05:41;;;;;;;4.07;3.50;;;;;;;18.70;75.96;94014.50;523685;28;931;-43
2023/09/17 01:05:58;;;;;;;4.43;4.03;;;;;;;18.67;75.74;94013.59;525270;28;907;-42
2023/09/17 01:06:13;;;;;;;4.50;4.10;;;;;;;18.69;75.82;94013.75;525076;28;1836;-42
2023/09/17 01:06:29;;;;;;;6.25;3.88;;;;;;;18.69;76.04;94024.94;525639;28;911;-42
2023/09/17 01:06:45;;;;;;;6.53;3.73;;;;;;;18.69;75.93;94015.84;526017;28;825;-43
2023/09/17 01:07:01;;;;;;;4.22;3.55;;;;;;;18.65;76.05;94013.47;526008;28;919;-42
2023/09/17 01:07:17;;;;;;;4.35;3.45;;;;;;;18.69;75.97;94013.75;523801;28;1176;-42
2023/09/17 01:07:33;;;;;;;4.40;3.33;;;;;;;18.60;75.74;94002.56;523892;28;833;-42
2023/09/17 01:07:49;;;;;;;4.60;3.50;;;;;;;18.57;75.81;93998.91;523900;28;955;-42
2023/09/17 01:08:06;;;;;;;5.10;3.40;;;;;;;18.68;75.85;94023.47;524735;28;1197;-42
2023/09/17 01:08:23;;;;;;;4.20;3.60;;;;;;;18.67;75.73;94019.19;526204;28;931;-42
2023/09/17 01:08:40;;;;;;;4.07;3.65;;;;;;;18.67;75.78;94016.41;525580;28;1057;-43
2023/09/17 01:08:56;;;;;;;3.67;3.38;;;;;;;18.67;75.89;94021.25;525927;28;880;-42
2023/09/17 01:09:12;;;;;;;4.03;3.37;;;;;;;18.58;75.97;94005.94;527390;28;804;-43
2023/09/17 01:09:29;;;;;;;3.90;3.30;;;;;;;18.65;75.93;94015.50;525765;28;1754;-43
2023/09/17 01:09:45;;;;;;;5.32;3.50;;;;;;;18.62;75.99;94011.84;525954;28;901;-42
2023/09/17 01:10:01;;;;;;;7.07;3.53;;;;;;;18.64;76.11;94014.81;523866;28;1189;-43
2023/09/17 01:10:17;;;;;;;5.47;3.38;;;;;;;18.63;75.91;94013.31;523854;28;1113;-42
2023/09/17 01:10:34;;;;;;;3.72;3.30;;;;;;;18.63;75.90;94018.16;523723;28;660;-42
2023/09/17 01:10:49;;;;;;;3.45;3.05;;;;;;;18.57;76.03;94009.34;523963;28;932;-42
2023/09/17 01:11:07;;;;;;;3.90;3.17;;;;;;;18.62;75.97;94002.72;523947;28;832;-42
2023/09/17 01:11:22;;;;;;;4.03;3.40;;;;;;;18.62;76.16;94006.25;525181;28;913;-42
2023/09/17 01:11:38;;;;;;;4.75;3.70;;;;;;;18.63;76.07;94012.56;525782;28;1398;-42
2023/09/17 01:11:53;;;;;;;4.53;3.67;;;;;;;18.63;75.96;94012.56;525995;28;935;-42
2023/09/17 01:12:09;;;;;;;3.73;3.37;;;;;;;18.62;75.88;94008.31;526020;28;943;-42
2023/09/17 01:12:26;;;;;;;4.93;3.40;;;;;;;18.63;75.81;94020.97;525983;28;882;-42
2023/09/17 01:12:42;;;;;;;6.03;3.38;;;;;;;18.63;75.61;94015.38;527822;28;944;-42
2023/09/17 01:12:58;;;;;;;6.18;3.30;;;;;;;18.62;75.53;94006.25;528081;28;1135;-42
2023/09/17 01:13:14;;;;;;;3.88;3.30;;;;;;;18.63;75.39;94012.56;525863;28;1089;-42
2023/09/17 01:13:31;;;;;;;3.40;3.10;;;;;;;18.61;75.53;94009.63;525993;28;812;-42
2023/09/17 01:14:07;;;;;;;3.72;3.03;;;;;;;18.61;75.68;94009.63;525939;28;939;-42
2023/09/17 01:14:23;;;;;;;5.25;3.70;;;;;;;18.59;75.74;94009.47;525955;28;887;-42
2023/09/17 01:14:39;;;;;;;5.00;3.60;;;;;;;18.59;75.40;94013.03;524456;28;1393;-42
2023/09/17 01:14:54;;;;;;;4.07;3.33;;;;;;;18.58;75.52;94011.53;521752;28;833;-42
2023/09/17 01:15:10;;;;;;;3.50;3.20;;;;;;;18.30;75.32;93970.28;523290;28;877;-42
2023/09/17 01:15:27;;;;;;;4.00;3.50;;;;;;;18.58;75.50;94005.94;523891;28;817;-42
2023/09/17 01:15:43;;;;;;;4.25;3.65;;;;;;;18.58;75.32;94005.94;525011;28;1033;-42
2023/09/17 01:15:59;;;;;;;4.22;3.70;;;;;;;18.58;75.52;94005.22;523974;28;872;-42
2023/09/17 01:16:14;;;;;;;4.47;3.70;;;;;;;18.58;75.31;94008.75;524735;28;993;-42
2023/09/17 01:16:30;;;;;;;4.22;3.75;;;;;;;18.58;75.49;94005.22;526319;28;948;-42
2023/09/17 01:16:46;;;;;;;4.10;3.70;;;;;;;18.56;75.66;93997.41;526950;28;1413;-42
2023/09/17 01:17:03;;;;;;;3.95;3.55;;;;;;;18.56;75.66;94000.19;526647;28;848;-42
2023/09/17 01:17:18;;;;;;;4.07;3.58;;;;;;;18.57;75.79;94000.94;525994;28;832;-42
2023/09/17 01:17:34;;;;;;;4.10;3.53;;;;;;;18.55;75.72;94012.72;526687;28;925;-42